Time;durP1;ratioP1;P1;durP2;ratioP2;P2;SDS_P1;SDS_P2;PMS_P1;PMS_P2;Temp;Humidity;BMP_temperature;BMP_pressure;BME280_temperature;BME280_humidity;BME280_pressure;Samples;Min_cycle;Max_cycle;Signal;HPM_P1;HPM_P2
2022/10/06 00:02:11;;;;;;;;;;;;;;;18.73;54.75;101196.63;4928765;28;7441;-79
2022/10/06 00:04:37;;;;;;;;;;;;;;;18.67;55.24;101199.06;4941724;28;7347;-81
2022/10/06 00:07:03;;;;;;;;;;;;;;;18.63;55.06;101207.56;4940465;28;6906;-79
2022/10/06 00:09:28;;;;;;;;;;;;;;;18.58;55.76;101214.38;4938883;28;8497;-79
2022/10/06 00:11:54;;;;;;;;;;;;;;;18.55;55.34;101216.91;4939113;28;6768;-80
2022/10/06 00:14:20;;;;;;;;;;;;;;;18.50;55.44;101223.66;4921724;28;6780;-79
2022/10/06 00:16:46;;;;;;;;;;;;;;;18.43;55.60;101218.28;4923188;28;6956;-80
2022/10/06 00:19:12;;;;;;;;;;;;;;;18.38;55.60;101230.25;4929278;28;6876;-77
2022/10/06 00:21:37;;;;;;;;;;;;;;;18.34;56.07;101243.97;4937554;28;6784;-79
2022/10/06 00:24:03;;;;;;;;;;;;;;;18.28;55.50;101243.81;4943477;28;6780;-79
2022/10/06 00:26:29;;;;;;;;;;;;;;;18.24;55.93;101252.31;4927412;28;7111;-79
2022/10/06 00:28:55;;;;;;;;;;;;;;;18.19;55.86;101246.97;4943036;28;7438;-79
2022/10/06 00:31:21;;;;;;;;;;;;;;;18.18;56.02;101253.00;4940620;28;8504;-80
2022/10/06 00:33:48;;;;;;;;;;;;;;;18.17;56.03;101252.16;4917524;28;8544;-79
2022/10/06 00:36:14;;;;;;;;;;;;;;;18.19;56.31;101249.56;4940815;28;6875;-80
2022/10/06 00:38:40;;;;;;;;;;;;;;;18.20;56.48;101260.84;4939666;28;6967;-79
2022/10/06 00:41:06;;;;;;;;;;;;;;;18.18;56.02;101255.59;4938219;28;6961;-81
2022/10/06 00:43:46;;;;;;;;;;;;;;;18.20;56.17;101260.84;4925582;28;8031;-80
2022/10/06 00:46:32;;;;;;;;;;;;;;;18.18;56.25;101274.66;4942757;28;7214;-79
2022/10/06 00:49:27;;;;;;;;;;;;;;;18.15;56.27;101271.09;4939806;28;9001;-81
2022/10/06 00:52:02;;;;;;;;;;;;;;;18.08;56.33;101275.22;4937465;28;6882;-80
2022/10/06 00:54:32;;;;;;;;;;;;;;;18.03;56.18;101285.44;4940024;28;6987;-80
2022/10/06 00:56:59;;;;;;;;;;;;;;;17.98;56.23;101286.97;4937579;28;8458;-79
2022/10/06 00:59:24;;;;;;;;;;;;;;;17.92;56.66;101284.19;4939263;28;6804;-80
2022/10/06 01:02:03;;;;;;;;;;;;;;;17.86;56.41;101295.22;4929164;28;6951;-79
2022/10/06 01:04:36;;;;;;;;;;;;;;;17.81;56.35;101293.31;4937841;28;7022;-79
2022/10/06 01:07:03;;;;;;;;;;;;;;;17.76;56.77;101298.34;4907797;28;8433;-79
2022/10/06 01:09:30;;;;;;;;;;;;;;;17.71;56.07;101299.94;4925920;28;6880;-79
2022/10/06 01:12:01;;;;;;;;;;;;;;;17.68;56.32;101310.19;4923217;28;7267;-79
2022/10/06 01:14:28;;;;;;;;;;;;;;;17.65;57.00;101304.91;4936956;28;8198;-79
2022/10/06 01:17:31;;;;;;;;;;;;;;;17.61;56.91;101316.88;4921069;28;8568;-79
2022/10/06 01:20:08;;;;;;;;;;;;;;;17.56;56.19;101316.72;4899913;28;8438;-80
2022/10/06 01:22:44;;;;;;;;;;;;;;;17.54;56.43;101335.66;4929655;28;7190;-79
2022/10/06 01:25:15;;;;;;;;;;;;;;;17.52;56.91;101339.88;4942033;28;6816;-80
2022/10/06 01:27:49;;;;;;;;;;;;;;;17.49;57.04;101335.50;4929309;28;6808;-79
2022/10/06 01:30:25;;;;;;;;;;;;;;;17.47;56.94;101339.72;4923006;28;7296;-79
2022/10/06 01:32:51;;;;;;;;;;;;;;;17.46;57.35;101345.75;4941766;28;8583;-79
2022/10/06 01:35:17;;;;;;;;;;;;;;;17.43;56.99;101350.81;4940271;28;8508;-79
2022/10/06 01:37:43;;;;;;;;;;;;;;;17.39;56.98;101357.59;4925465;28;6935;-79
2022/10/06 01:40:09;;;;;;;;;;;;;;;17.35;57.11;101366.97;4939784;28;6999;-80
2022/10/06 01:42:35;;;;;;;;;;;;;;;17.31;57.07;101367.69;4924788;28;8672;-79
2022/10/06 01:45:02;;;;;;;;;;;;;;;17.28;57.30;101366.72;4919675;28;8442;-79
2022/10/06 01:47:28;;;;;;;;;;;;;;;17.24;57.14;101370.00;4931606;28;6919;-80
2022/10/06 01:49:53;;;;;;;;;;;;;;;17.19;57.29;101375.00;4939376;28;7025;-78
2022/10/06 01:52:21;;;;;;;;;;;;;;;17.14;57.14;101377.47;4925752;28;6971;-79
2022/10/06 01:54:46;;;;;;;;;;;;;;;17.10;57.22;101382.47;4922191;28;6864;-80
2022/10/06 01:57:12;;;;;;;;;;;;;;;17.05;57.07;101382.31;4939607;28;8336;-79
2022/10/06 01:59:37;;;;;;;;;;;;;;;16.99;56.99;101385.50;4925674;29;7211;-80
2022/10/06 02:02:04;;;;;;;;;;;;;;;16.94;57.32;101381.88;4940637;28;6791;-78
2022/10/06 02:04:29;;;;;;;;;;;;;;;16.90;57.67;101382.56;4941048;28;6784;-79
2022/10/06 02:06:55;;;;;;;;;;;;;;;16.87;57.88;101385.94;4939867;28;6961;-79
2022/10/06 02:09:22;;;;;;;;;;;;;;;16.84;57.41;101380.63;4938084;28;7031;-78
2022/10/06 02:11:48;;;;;;;;;;;;;;;16.81;57.68;101388.28;4922890;29;7016;-79
2022/10/06 02:14:13;;;;;;;;;;;;;;;16.80;57.84;101386.50;4920702;28;8486;-79
2022/10/06 02:16:40;;;;;;;;;;;;;;;16.77;57.61;101395.03;4939916;28;8014;-79
2022/10/06 02:19:06;;;;;;;;;;;;;;;16.76;57.43;101401.03;4937079;28;8309;-79
2022/10/06 02:21:32;;;;;;;;;;;;;;;16.74;57.26;101392.34;4935813;28;8514;-79
2022/10/06 02:23:57;;;;;;;;;;;;;;;16.75;57.23;101401.88;4941111;28;7012;-79
2022/10/06 02:26:23;;;;;;;;;;;;;;;16.74;56.80;101404.38;4928850;28;6983;-80
2022/10/06 02:28:49;;;;;;;;;;;;;;;16.72;56.73;101411.22;4941601;28;7199;-80
2022/10/06 02:31:15;;;;;;;;;;;;;;;16.70;56.43;101408.56;4928802;28;8637;-79
2022/10/06 02:33:42;;;;;;;;;;;;;;;16.68;56.66;101411.94;4942039;28;6784;-79
2022/10/06 02:36:12;;;;;;;;;;;;;;;16.64;56.19;101421.28;4940083;28;8420;-79
2022/10/06 02:38:40;;;;;;;;;;;;;;;16.60;55.98;101419.38;4943441;28;7043;-79
2022/10/06 02:41:07;;;;;;;;;;;;;;;16.57;56.06;101427.03;4945497;28;7025;-81
2022/10/06 02:43:33;;;;;;;;;;;;;;;16.49;56.27;101432.78;4925525;28;8461;-80
2022/10/06 02:46:07;;;;;;;;;;;;;;;16.47;55.83;101437.00;4945474;28;6776;-79
2022/10/06 02:48:33;;;;;;;;;;;;;;;16.42;56.01;101435.06;4930493;28;6973;-79
2022/10/06 02:51:05;;;;;;;;;;;;;;;16.38;55.85;101434.06;4944405;28;6992;-78
2022/10/06 02:53:31;;;;;;;;;;;;;;;16.34;55.80;101434.75;4934846;28;6987;-79
2022/10/06 02:56:14;;;;;;;;;;;;;;;16.29;55.84;101436.25;4946854;28;10150;-81
2022/10/06 02:58:41;;;;;;;;;;;;;;;16.27;56.00;101437.91;4942709;28;6800;-80
2022/10/06 03:01:10;;;;;;;;;;;;;;;16.24;56.06;101447.31;4942399;28;7331;-80
2022/10/06 03:03:37;;;;;;;;;;;;;;;16.20;55.63;101450.56;4935134;28;7312;-81
2022/10/06 03:06:23;;;;;;;;;;;;;;;16.17;55.86;101465.06;4944931;28;7037;-80
2022/10/06 03:09:06;;;;;;;;;;;;;;;16.13;55.80;101470.97;4946868;28;7220;-81
2022/10/06 03:11:41;;;;;;;;;;;;;;;16.09;55.61;101473.41;4929339;28;7235;-80
2022/10/06 03:14:07;;;;;;;;;;;;;;;16.06;56.03;101478.44;4948769;28;6965;-80
2022/10/06 03:16:39;;;;;;;;;;;;;;;16.03;55.87;101477.41;4930835;28;8685;-79
2022/10/06 03:19:07;;;;;;;;;;;;;;;16.01;55.89;101489.41;4944872;28;8460;-80
2022/10/06 03:21:40;;;;;;;;;;;;;;;15.99;55.94;101496.22;4946074;28;7003;-79
2022/10/06 03:24:06;;;;;;;;;;;;;;;15.95;55.94;101496.09;4945809;28;6848;-80
2022/10/06 03:26:45;;;;;;;;;;;;;;;15.93;56.06;101500.31;4932058;28;8350;-79
2022/10/06 03:29:11;;;;;;;;;;;;;;;15.91;55.71;101504.53;4934249;28;7007;-80
2022/10/06 03:31:38;;;;;;;;;;;;;;;15.90;55.56;101514.78;4929510;28;8558;-80
2022/10/06 03:34:04;;;;;;;;;;;;;;;15.85;56.16;101514.59;4942702;28;8829;-81
2022/10/06 03:36:32;;;;;;;;;;;;;;;15.85;55.35;101519.75;4926962;28;7215;-80
2022/10/06 03:39:00;;;;;;;;;;;;;;;15.81;55.87;101523.00;4937864;28;8435;-81
2022/10/06 03:41:31;;;;;;;;;;;;;;;15.79;55.56;101529.81;4923676;28;11555;-81
2022/10/06 03:43:58;;;;;;;;;;;;;;;15.76;55.81;101534.84;4946039;28;7292;-78
2022/10/06 03:46:28;;;;;;;;;;;;;;;15.73;55.34;101538.16;4941148;28;6801;-76
2022/10/06 03:49:00;;;;;;;;;;;;;;;15.70;55.52;101540.63;4940931;28;7251;-81
2022/10/06 03:51:33;;;;;;;;;;;;;;;15.68;55.50;101544.81;4931687;28;7320;-80
2022/10/06 03:53:59;;;;;;;;;;;;;;;15.66;55.99;101551.63;4944215;28;7156;-79
2022/10/06 03:56:29;;;;;;;;;;;;;;;15.63;55.44;101554.06;4944607;28;6993;-79
2022/10/06 03:59:05;;;;;;;;;;;;;;;15.60;55.50;101554.81;4942933;28;7078;-80
2022/10/06 04:01:34;;;;;;;;;;;;;;;15.57;55.59;101559.84;4938362;28;7259;-79
2022/10/06 04:04:02;;;;;;;;;;;;;;;15.55;55.76;101564.06;4943410;28;6788;-80
2022/10/06 04:06:31;;;;;;;;;;;;;;;15.52;55.72;101571.66;4938781;28;6804;-79
2022/10/06 04:08:57;;;;;;;;;;;;;;;15.49;56.01;101571.53;4921610;28;7319;-75
2022/10/06 04:11:33;;;;;;;;;;;;;;;15.48;55.72;101569.75;4940966;28;6804;-77
2022/10/06 04:14:07;;;;;;;;;;;;;;;15.47;55.35;101584.38;4937587;28;6977;-79
2022/10/06 04:16:40;;;;;;;;;;;;;;;15.45;55.45;101587.69;4943477;28;6812;-79
2022/10/06 04:19:09;;;;;;;;;;;;;;;15.43;55.17;101589.31;4935207;28;7330;-79
2022/10/06 04:21:37;;;;;;;;;;;;;;;15.39;55.15;101583.13;4927098;28;7255;-78
2022/10/06 04:24:05;;;;;;;;;;;;;;;15.35;55.63;101597.56;4935537;28;7000;-80
2022/10/06 04:26:39;;;;;;;;;;;;;;;15.30;55.65;101601.66;4942361;28;7234;-79
2022/10/06 04:29:05;;;;;;;;;;;;;;;15.27;55.59;101606.69;4931866;28;6988;-79
2022/10/06 04:31:35;;;;;;;;;;;;;;;15.24;55.74;101611.69;4940837;28;6972;-79
2022/10/06 04:34:03;;;;;;;;;;;;;;;15.19;55.84;101608.00;4945286;28;8645;-79
2022/10/06 04:36:38;;;;;;;;;;;;;;;15.16;55.43;101615.59;4926796;28;7198;-79
2022/10/06 04:39:06;;;;;;;;;;;;;;;15.14;55.81;101610.38;4945718;28;6958;-79
2022/10/06 04:41:36;;;;;;;;;;;;;;;15.10;56.14;101614.50;4943532;28;7005;-80
2022/10/06 04:44:03;;;;;;;;;;;;;;;15.07;55.92;101618.63;4939015;28;7003;-80
2022/10/06 04:46:31;;;;;;;;;;;;;;;15.05;56.38;101615.09;4912844;28;8738;-80
2022/10/06 04:48:56;;;;;;;;;;;;;;;15.01;56.19;101629.53;4941917;28;6949;-80
2022/10/06 04:51:25;;;;;;;;;;;;;;;14.96;56.08;101623.25;4942387;28;6942;-79
2022/10/06 04:53:51;;;;;;;;;;;;;;;14.94;55.96;101624.88;4940420;28;6972;-80
2022/10/06 04:56:25;;;;;;;;;;;;;;;14.90;55.35;101634.16;4948207;28;8699;-78
2022/10/06 04:58:53;;;;;;;;;;;;;;;14.85;56.33;101633.91;4945279;28;7056;-80
2022/10/06 05:01:29;;;;;;;;;;;;;;;14.84;55.61;101641.59;4941616;28;6959;-80
2022/10/06 05:03:57;;;;;;;;;;;;;;;14.80;55.78;101647.41;4944423;28;7181;-79
2022/10/06 05:06:32;;;;;;;;;;;;;;;14.78;55.57;101646.44;4928556;28;8762;-79
2022/10/06 05:09:11;;;;;;;;;;;;;;;14.75;56.35;101648.88;4943540;28;8686;-81
2022/10/06 05:11:37;;;;;;;;;;;;;;;14.70;55.72;101654.66;4941893;28;8452;-79
2022/10/06 05:14:03;;;;;;;;;;;;;;;14.65;56.57;101655.22;4930557;28;6792;-79
2022/10/06 05:16:30;;;;;;;;;;;;;;;14.64;55.60;101658.59;4935948;28;10001;-79
2022/10/06 05:18:58;;;;;;;;;;;;;;;14.62;56.22;101663.69;4931581;28;8493;-79
2022/10/06 05:21:31;;;;;;;;;;;;;;;14.59;55.63;101666.13;4926135;28;8780;-79
2022/10/06 05:23:57;;;;;;;;;;;;;;;14.57;55.98;101673.75;4934153;28;8798;-79
2022/10/06 05:26:28;;;;;;;;;;;;;;;14.54;56.39;101678.78;4932389;28;8508;-79
2022/10/06 05:28:53;;;;;;;;;;;;;;;14.52;56.06;101688.13;4942002;28;6983;-79
2022/10/06 05:31:32;;;;;;;;;;;;;;;14.49;55.42;101685.41;4928966;28;7199;-79
2022/10/06 05:33:58;;;;;;;;;;;;;;;14.46;55.50;101687.78;4917873;28;8728;-81
2022/10/06 05:36:31;;;;;;;;;;;;;;;14.44;55.39;101686.84;4929116;28;8451;-80
2022/10/06 05:38:58;;;;;;;;;;;;;;;14.43;56.20;101705.69;4925655;28;8619;-79
2022/10/06 05:41:30;;;;;;;;;;;;;;;14.42;55.92;101698.78;4941858;28;10099;-78
2022/10/06 05:43:57;;;;;;;;;;;;;;;14.40;55.85;101703.84;4931953;28;7239;-80
2022/10/06 05:46:29;;;;;;;;;;;;;;;14.39;56.52;101706.31;4927265;28;6989;-79
2022/10/06 05:49:02;;;;;;;;;;;;;;;14.40;56.01;101709.00;4930886;28;7016;-80
2022/10/06 05:51:30;;;;;;;;;;;;;;;14.40;55.64;101726.19;4927672;28;8420;-79
2022/10/06 05:54:00;;;;;;;;;;;;;;;14.40;55.90;101726.19;4924246;28;8441;-80
2022/10/06 05:56:31;;;;;;;;;;;;;;;14.38;56.58;101725.19;4926709;28;8478;-80
2022/10/06 05:58:59;;;;;;;;;;;;;;;14.38;55.92;101735.50;4942808;28;8705;-80
2022/10/06 06:01:34;;;;;;;;;;;;;;;14.37;56.35;101732.06;4942987;28;6961;-81
2022/10/06 06:04:06;;;;;;;;;;;;;;;14.38;55.79;101735.50;4930641;28;8727;-80
2022/10/06 06:06:44;;;;;;;;;;;;;;;14.38;56.66;101738.97;4921532;28;8564;-77
2022/10/06 06:09:15;;;;;;;;;;;;;;;14.38;55.83;101740.66;4939059;28;6780;-79
2022/10/06 06:11:45;;;;;;;;;;;;;;;14.39;56.45;101751.06;4933446;29;8427;-80
2022/10/06 06:14:18;;;;;;;;;;;;;;;14.38;56.67;101750.97;4941084;28;6989;-81
2022/10/06 06:16:45;;;;;;;;;;;;;;;14.39;56.84;101750.16;4925832;28;7157;-79
2022/10/06 06:19:13;;;;;;;;;;;;;;;14.41;56.74;101758.91;4946927;28;6796;-80
2022/10/06 06:21:39;;;;;;;;;;;;;;;14.42;56.48;101760.69;4946804;28;7245;-80
2022/10/06 06:24:05;;;;;;;;;;;;;;;14.43;56.67;101762.44;4946426;28;6982;-81
2022/10/06 06:26:35;;;;;;;;;;;;;;;14.46;56.33;101764.31;4945591;28;7349;-78
2022/10/06 06:29:02;;;;;;;;;;;;;;;14.47;56.03;101764.38;4921653;28;8630;-79
2022/10/06 06:31:42;;;;;;;;;;;;;;;14.51;56.74;101776.66;4927331;28;6857;-80
2022/10/06 06:34:08;;;;;;;;;;;;;;;14.52;56.88;101768.09;4929527;28;6968;-81
2022/10/06 06:36:39;;;;;;;;;;;;;;;14.56;56.55;101774.31;4941957;28;7202;-79
2022/10/06 06:39:12;;;;;;;;;;;;;;;14.59;56.17;101774.47;4938844;28;7041;-79
2022/10/06 06:41:44;;;;;;;;;;;;;;;14.63;56.42;101775.53;4944473;28;6992;-81
2022/10/06 06:44:12;;;;;;;;;;;;;;;14.65;56.75;101779.97;4910467;28;8450;-79
2022/10/06 06:46:42;;;;;;;;;;;;;;;14.68;57.24;101781.84;4941540;28;6978;-81
2022/10/06 06:49:10;;;;;;;;;;;;;;;14.74;57.04;101797.66;4901079;28;8650;-79
2022/10/06 06:51:42;;;;;;;;;;;;;;;14.79;56.45;101783.31;4929928;28;7019;-77
2022/10/06 06:54:11;;;;;;;;;;;;;;;14.81;57.09;101792.03;4931031;28;7959;-78
2022/10/06 06:56:37;;;;;;;;;;;;;;;14.88;56.84;101800.97;4924154;28;8689;-79
2022/10/06 06:59:09;;;;;;;;;;;;;;;14.92;56.64;101797.75;4919555;28;7215;-80
2022/10/06 07:01:37;;;;;;;;;;;;;;;14.96;55.99;101806.53;4938516;28;8386;-79
2022/10/06 07:04:04;;;;;;;;;;;;;;;15.03;56.21;101808.63;4927164;28;6943;-79
2022/10/06 07:06:31;;;;;;;;;;;;;;;15.07;56.56;101808.00;4938492;28;8487;-82
2022/10/06 07:08:59;;;;;;;;;;;;;;;15.13;56.94;101812.59;4933638;28;7218;-80
2022/10/06 07:11:34;;;;;;;;;;;;;;;15.20;56.89;101817.25;4942716;28;6968;-79
2022/10/06 07:14:05;;;;;;;;;;;;;;;15.27;56.54;101823.63;4942771;28;7033;-79
2022/10/06 07:25:06;;;;;;;;;;;;;;;15.54;56.50;101838.75;4945351;28;7118;-81
2022/10/06 07:27:42;;;;;;;;;;;;;;;15.59;55.97;101842.47;4941850;28;8750;-80
2022/10/06 07:30:18;;;;;;;;;;;;;;;15.66;56.05;101843.66;4943768;28;7359;-79
2022/10/06 07:32:49;;;;;;;;;;;;;;;15.72;55.60;101843.06;4943456;28;13275;-81
2022/10/06 07:35:15;;;;;;;;;;;;;;;15.77;55.78;101846.78;4931099;28;8816;-79
2022/10/06 07:37:42;;;;;;;;;;;;;;;15.81;55.51;101853.88;4941387;28;7009;-79
2022/10/06 07:40:09;;;;;;;;;;;;;;;15.88;55.50;101857.63;4932166;28;7136;-80
2022/10/06 07:42:48;;;;;;;;;;;;;;;15.93;56.06;101858.81;4932061;28;7025;-80
2022/10/06 07:45:40;;;;;;;;;;;;;;;15.99;55.54;101865.97;4936606;28;8677;-80
2022/10/06 07:48:19;;;;;;;;;;;;;;;16.04;55.68;101869.69;4944975;28;6992;-79
2022/10/06 07:50:50;;;;;;;;;;;;;;;16.09;55.33;101871.69;4941299;28;6832;-81
2022/10/06 07:53:17;;;;;;;;;;;;;;;16.18;55.55;101872.94;4937533;28;7032;-79
2022/10/06 07:55:46;;;;;;;;;;;;;;;16.22;55.00;101875.75;4937548;28;7204;-81
2022/10/06 07:58:19;;;;;;;;;;;;;;;16.30;55.20;101875.22;4929845;28;7017;-79
2022/10/06 08:00:51;;;;;;;;;;;;;;;16.36;55.52;101885.88;4939069;28;6995;-81
2022/10/06 08:03:18;;;;;;;;;;;;;;;16.41;55.04;101879.19;4920968;29;8570;-81
2022/10/06 08:05:48;;;;;;;;;;;;;;;16.48;55.00;101890.75;4923124;28;6788;-79
2022/10/06 08:08:16;;;;;;;;;;;;;;;16.56;54.82;101893.69;4934540;28;6984;-79
2022/10/06 08:10:50;;;;;;;;;;;;;;;16.61;54.87;101893.09;4931943;28;7894;-79
2022/10/06 08:13:15;;;;;;;;;;;;;;;16.70;54.65;101900.38;4931779;28;7090;-80
2022/10/06 08:15:41;;;;;;;;;;;;;;;16.74;54.60;101894.56;4925814;29;6796;-79
2022/10/06 08:18:07;;;;;;;;;;;;;;;16.82;54.33;101894.03;4914539;28;8869;-81
2022/10/06 08:20:32;;;;;;;;;;;;;;;16.87;54.57;101893.44;4933653;28;7010;-80
2022/10/06 08:22:58;;;;;;;;;;;;;;;16.93;54.72;101893.69;4934328;28;7266;-79
2022/10/06 08:25:24;;;;;;;;;;;;;;;16.99;54.26;101905.16;4916948;28;8459;-79
2022/10/06 08:27:49;;;;;;;;;;;;;;;17.06;54.86;101907.25;4919459;29;6943;-81
2022/10/06 08:30:15;;;;;;;;;;;;;;;17.12;54.57;101906.63;4937475;28;7204;-79
2022/10/06 08:32:42;;;;;;;;;;;;;;;17.19;54.24;101911.25;4904239;28;7007;-80
2022/10/06 08:35:09;;;;;;;;;;;;;;;17.24;53.94;101916.63;4918494;28;9118;-79
2022/10/06 08:37:35;;;;;;;;;;;;;;;17.30;53.93;101917.81;4935253;28;6949;-80
2022/10/06 08:40:01;;;;;;;;;;;;;;;17.33;53.64;101910.19;4919964;28;7079;-80
2022/10/06 08:42:51;;;;;;;;;;;;;;;17.41;53.79;101920.00;4933088;28;7291;-80
2022/10/06 08:45:24;;;;;;;;;;;;;;;17.46;53.58;101914.19;4916674;28;8443;-81
2022/10/06 08:48:00;;;;;;;;;;;;;;;17.53;53.33;101927.41;4935622;28;7235;-81
2022/10/06 08:50:37;;;;;;;;;;;;;;;17.58;53.46;101919.03;4923109;28;6962;-79
2022/10/06 08:53:45;;;;;;;;;;;;;;;17.65;53.14;101924.47;4918256;29;7149;-81
2022/10/06 08:56:55;;;;;;;;;;;;;;;17.70;53.04;101922.97;4923312;28;7280;-80
2022/10/06 08:59:21;;;;;;;;;;;;;;;17.76;52.51;101931.91;4919666;28;11425;-80
2022/10/06 09:01:50;;;;;;;;;;;;;;;17.83;52.39;101925.25;4923942;28;7039;-80
2022/10/06 09:04:29;;;;;;;;;;;;;;;17.93;52.20;101931.72;4911508;28;6841;-78
2022/10/06 09:07:13;;;;;;;;;;;;;;;17.98;52.37;101935.38;4939918;28;6824;-79
2022/10/06 09:09:56;;;;;;;;;;;;;;;18.06;52.06;101945.25;4942730;28;7194;-81
2022/10/06 09:12:38;;;;;;;;;;;;;;;18.10;51.61;101944.53;4938211;28;7376;-80
2022/10/06 09:15:13;;;;;;;;;;;;;;;18.14;51.55;101947.31;4937247;28;7090;-80
2022/10/06 09:17:49;;;;;;;;;;;;;;;18.22;51.08;101951.94;4939203;28;6828;-79
2022/10/06 09:20:56;;;;;;;;;;;;;;;18.28;51.24;101947.03;4936024;28;7467;-79
2022/10/06 09:26:13;;;;;;;;;;;;;;;18.34;50.99;101954.16;4938090;28;6804;-81
2022/10/06 09:28:44;;;;;;;;;;;;;;;18.39;50.96;101958.72;4939268;28;7035;-80
2022/10/06 09:31:20;;;;;;;;;;;;;;;18.44;50.65;101962.38;4939734;28;7267;-80
2022/10/06 09:34:03;;;;;;;;;;;;;;;18.54;50.68;101970.53;4940613;28;7031;-81
2022/10/06 09:36:29;;;;;;;;;;;;;;;18.61;49.91;101969.97;4923304;28;8583;-80
2022/10/06 09:38:58;;;;;;;;;;;;;;;18.67;49.78;101966.72;4934713;28;8635;-79
2022/10/06 09:41:41;;;;;;;;;;;;;;;18.74;49.86;101972.22;4917190;28;6784;-80
2022/10/06 09:44:26;;;;;;;;;;;;;;;18.84;49.50;101977.78;4935574;28;6812;-81
2022/10/06 09:46:52;;;;;;;;;;;;;;;18.92;49.84;101971.16;4920888;28;8458;-79
2022/10/06 09:49:24;;;;;;;;;;;;;;;18.98;49.98;101967.94;4926303;28;8396;-81
2022/10/06 09:52:14;;;;;;;;;;;;;;;19.06;49.21;101969.13;4937284;28;7238;-78
2022/10/06 09:54:43;;;;;;;;;;;;;;;19.15;49.67;101960.81;4929953;28;7000;-79
2022/10/06 09:57:19;;;;;;;;;;;;;;;19.24;48.91;101968.03;4936009;28;7602;-80
2022/10/06 09:59:47;;;;;;;;;;;;;;;19.33;48.76;101963.19;4924371;28;7130;-79
2022/10/06 10:02:21;;;;;;;;;;;;;;;19.47;49.04;101971.50;4937755;28;7980;-82
2022/10/06 10:04:55;;;;;;;;;;;;;;;19.73;49.30;101973.25;4935742;28;7211;-80
2022/10/06 10:07:27;;;;;;;;;;;;;;;20.42;48.08;101972.13;4934704;28;6972;-79
2022/10/06 10:10:22;;;;;;;;;;;;;;;21.61;46.98;101960.84;4923052;29;6813;-80
2022/10/06 10:12:53;;;;;;;;;;;;;;;23.08;44.72;101960.94;4935985;28;7034;-80
2022/10/06 10:15:18;;;;;;;;;;;;;;;24.23;43.07;101959.59;4933353;28;8555;-81
2022/10/06 10:17:55;;;;;;;;;;;;;;;25.23;41.23;101949.59;4931162;28;8609;-80
2022/10/06 10:20:24;;;;;;;;;;;;;;;26.14;39.92;101950.50;4936719;28;8605;-80
2022/10/06 10:22:53;;;;;;;;;;;;;;;26.94;38.79;101957.16;4931795;28;6792;-82
2022/10/06 10:26:00;;;;;;;;;;;;;;;27.75;37.73;101958.28;4935817;28;7254;-81
2022/10/06 10:29:16;;;;;;;;;;;;;;;28.71;36.21;101948.53;4938614;28;7319;-80
2022/10/06 10:32:28;;;;;;;;;;;;;;;29.29;34.44;101952.66;4935497;28;6842;-81
2022/10/06 10:35:11;;;;;;;;;;;;;;;29.75;34.50;101950.63;4937715;28;7264;-80
2022/10/06 10:37:59;;;;;;;;;;;;;;;30.23;33.42;101937.03;4930390;28;7007;-81
2022/10/06 10:40:39;;;;;;;;;;;;;;;30.63;32.30;101944.50;4935381;28;7101;-81
2022/10/06 10:43:16;;;;;;;;;;;;;;;31.00;31.28;101947.59;4931585;28;7393;-79
2022/10/06 10:46:05;;;;;;;;;;;;;;;31.23;31.35;101942.00;4934127;28;8884;-79
2022/10/06 10:48:56;;;;;;;;;;;;;;;31.50;30.91;101946.94;4935434;28;6971;-78
2022/10/06 10:51:39;;;;;;;;;;;;;;;31.89;30.38;101952.50;4930871;28;6864;-78
2022/10/06 10:54:26;;;;;;;;;;;;;;;32.34;29.96;101956.09;4901864;28;7344;-78
2022/10/06 10:56:52;;;;;;;;;;;;;;;32.63;29.10;101960.88;4931010;28;8751;-80
2022/10/06 10:59:31;;;;;;;;;;;;;;;32.78;28.79;101957.03;4922245;28;7189;-79
2022/10/06 11:02:19;;;;;;;;;;;;;;;33.10;28.45;101959.94;4933010;28;7211;-79
2022/10/06 11:05:32;;;;;;;;;;;;;;;33.52;28.15;101951.88;4935458;28;6957;-78
2022/10/06 11:08:36;;;;;;;;;;;;;;;33.90;27.51;101957.16;4936259;28;7150;-78
2022/10/06 11:11:40;;;;;;;;;;;;;;;33.86;26.90;101955.47;4934849;28;7689;-79
2022/10/06 11:14:44;;;;;;;;;;;;;;;33.60;26.87;101958.81;4933921;28;7322;-79
2022/10/06 11:17:43;;;;;;;;;;;;;;;33.37;26.07;101963.72;4938677;28;7388;-81
2022/10/06 11:20:46;;;;;;;;;;;;;;;33.00;26.49;101964.56;4937994;28;6840;-80
2022/10/06 11:23:28;;;;;;;;;;;;;;;32.73;26.48;101963.34;4939971;28;7243;-81
2022/10/06 11:26:28;;;;;;;;;;;;;;;32.64;26.43;101965.28;4928830;28;8423;-82
2022/10/06 11:29:24;;;;;;;;;;;;;;;32.38;26.77;101968.44;4933480;28;7308;-82
2022/10/06 11:32:21;;;;;;;;;;;;;;;32.25;26.36;101973.94;4938705;28;8828;-82
2022/10/06 11:34:50;;;;;;;;;;;;;;;32.44;26.06;101975.41;4939088;28;7122;-81
2022/10/06 11:37:43;;;;;;;;;;;;;;;32.64;25.46;101972.34;4927754;28;7016;-81
2022/10/06 11:40:35;;;;;;;;;;;;;;;32.77;25.48;101971.22;4934885;28;7241;-82
2022/10/06 11:43:32;;;;;;;;;;;;;;;32.85;25.05;101965.72;4938322;28;6812;-79
2022/10/06 11:46:39;;;;;;;;;;;;;;;32.73;24.64;101968.66;4936051;28;6990;-78
2022/10/06 11:49:30;;;;;;;;;;;;;;;32.49;24.75;101962.91;4933658;28;7262;-78
2022/10/06 11:52:15;;;;;;;;;;;;;;;32.25;24.56;101968.63;4940371;28;7088;-78
2022/10/06 11:54:54;;;;;;;;;;;;;;;32.25;24.32;101962.47;4934268;28;8256;-83
2022/10/06 11:57:22;;;;;;;;;;;;;;;32.26;24.39;101950.94;4937432;28;8523;-79
2022/10/06 11:59:54;;;;;;;;;;;;;;;32.20;24.40;101951.94;4930620;28;7445;-79
2022/10/06 12:02:28;;;;;;;;;;;;;;;32.11;24.03;101946.81;4934028;28;8453;-78
2022/10/06 12:05:17;;;;;;;;;;;;;;;32.04;24.06;101945.16;4935270;28;6960;-78
2022/10/06 12:07:55;;;;;;;;;;;;;;;32.03;23.46;101943.41;4937730;28;7182;-78
2022/10/06 12:10:27;;;;;;;;;;;;;;;31.86;22.88;101944.59;4933948;28;7186;-79
2022/10/06 12:13:50;;;;;;;;;;;;;;;31.14;23.31;101948.28;4935925;28;7254;-79
2022/10/06 12:16:35;;;;;;;;;;;;;;;29.26;24.41;101950.03;4903831;28;7343;-81
2022/10/06 12:19:37;;;;;;;;;;;;;;;27.86;25.78;101953.00;4936619;28;7453;-78
2022/10/06 12:22:34;;;;;;;;;;;;;;;26.59;26.60;101962.19;4936911;28;7235;-80
2022/10/06 12:25:26;;;;;;;;;;;;;;;25.55;27.47;101958.72;4938736;28;7002;-80
2022/10/06 12:28:24;;;;;;;;;;;;;;;24.73;28.77;101958.59;4940334;28;7244;-79
2022/10/06 12:31:20;;;;;;;;;;;;;;;24.11;29.23;101957.63;4937747;28;9112;-79
2022/10/06 12:33:47;;;;;;;;;;;;;;;23.64;30.40;101956.81;4938598;28;6975;-80
2022/10/06 12:36:24;;;;;;;;;;;;;;;23.33;30.90;101953.59;4935361;28;7891;-82
2022/10/06 12:39:22;;;;;;;;;;;;;;;23.06;31.18;101951.28;4936032;28;7277;-78
2022/10/06 12:42:18;;;;;;;;;;;;;;;22.79;31.66;101948.13;4932319;28;6987;-77
2022/10/06 12:44:48;;;;;;;;;;;;;;;22.60;32.08;101955.56;4928114;28;7947;-77
2022/10/06 12:47:40;;;;;;;;;;;;;;;22.46;32.29;101959.53;4930207;28;7282;-80
2022/10/06 12:50:25;;;;;;;;;;;;;;;22.31;32.26;101954.84;4917707;28;8518;-79
2022/10/06 12:53:04;;;;;;;;;;;;;;;22.17;32.54;101950.16;4930617;28;6824;-78
2022/10/06 12:55:55;;;;;;;;;;;;;;;22.06;33.17;101946.38;4937555;28;6816;-79
2022/10/06 12:58:31;;;;;;;;;;;;;;;21.96;33.05;101940.06;4923660;28;8987;-77
2022/10/06 13:01:10;;;;;;;;;;;;;;;21.90;33.05;101945.13;4902584;28;8474;-80
2022/10/06 13:03:37;;;;;;;;;;;;;;;21.86;33.08;101946.75;4933156;28;7295;-80
2022/10/06 13:06:07;;;;;;;;;;;;;;;21.84;33.13;101938.03;4938655;28;6952;-78
2022/10/06 13:08:39;;;;;;;;;;;;;;;21.81;33.38;101935.34;4937195;28;6969;-81
2022/10/06 13:11:21;;;;;;;;;;;;;;;21.77;33.85;101934.38;4927880;28;7237;-79
2022/10/06 13:13:52;;;;;;;;;;;;;;;21.75;33.79;101937.78;4936544;28;7354;-78
2022/10/06 13:16:27;;;;;;;;;;;;;;;21.73;33.85;101934.25;4917964;28;6969;-79
2022/10/06 13:18:56;;;;;;;;;;;;;;;21.69;34.07;101932.44;4937591;28;7001;-81
2022/10/06 13:21:23;;;;;;;;;;;;;;;21.64;33.98;101930.53;4936105;28;7101;-80
2022/10/06 13:23:50;;;;;;;;;;;;;;;21.62;34.02;101932.22;4927977;28;6866;-79
2022/10/06 13:26:29;;;;;;;;;;;;;;;21.61;34.05;101937.38;4921344;28;8687;-76
2022/10/06 13:28:59;;;;;;;;;;;;;;;21.58;34.29;101929.47;4936070;28;7226;-77
2022/10/06 13:31:30;;;;;;;;;;;;;;;21.55;34.26;101930.28;4937678;28;6976;-76
2022/10/06 13:34:08;;;;;;;;;;;;;;;21.50;34.14;101929.28;4923381;28;8290;-76